Latest Weather Observations for Gooseberry Hill

IDW60901

Issued at 2:41 pm WST Tuesday 16 August 2022 (issued every 10 minutes, with the page automatically refreshed every 10 minutes)

About weather observations | Map of Perth area stations | Latest observations for Perth area | Other Formats
Station Details ID: 009204 Name: GOOSEBERRY HILL Lat: -31.94 Lon: 116.05 Height: 220.0 m
Data from the previous 72 hours. | See also: Recent months at Gooseberry Hill
Date/Time
WST
Temp
°C
App
Temp
°C
Dew
Point
°C
Rel
Hum
%
Delta-T
°C
Wind Press
QNH
hPa
Press
MSL
hPa
Rain since
9am
mm
Dir  Spd
km/h
Gust
km/h
Spd
kts
Gust
kts
16/02:34pm 14.5 9.6 12.5 88 1.1 WSW 30 54 16 29 - - -
16/02:30pm 14.8 11.0 13.5 92 0.7 WSW 26 39 14 21 - - -
16/02:01pm 14.4 9.0 12.1 86 1.3 WSW 32 50 17 27 - - -
16/02:00pm 14.5 9.0 12.0 85 1.4 WSW 32 50 17 27 - - -
16/01:50pm 14.0 8.5 12.4 90 0.9 WSW 33 52 18 28 - - -
16/01:30pm 13.9 11.0 13.9 100 0.0 W 22 46 12 25 - - -
16/01:00pm 14.2 13.5 14.2 100 0.0 NW 11 19 6 10 - - -
16/12:30pm 13.6 12.7 13.6 100 0.0 W 11 19 6 10 - - -
16/12:00pm 13.3 11.1 13.3 100 0.0 W 17 30 9 16 - - -
16/11:30am 13.1 9.1 13.1 100 0.0 WSW 26 37 14 20 - - -
16/11:18am 13.3 10.2 13.3 100 0.0 W 22 41 12 22 - - -
16/11:00am 14.4 14.5 14.4 100 0.0 W 7 11 4 6 - - -
16/10:30am 13.4 11.2 13.4 100 0.0 WSW 17 24 9 13 - - -
16/10:00am 13.5 9.7 13.5 100 0.0 WSW 26 35 14 19 - - -
16/09:30am 13.9 8.1 13.9 100 0.0 WSW 37 54 20 29 - - -
16/09:17am 14.4 10.5 14.4 100 0.0 WSW 28 50 15 27 - - -
16/09:00am 14.5 9.9 14.5 100 0.0 WSW 32 50 17 27 - - -
16/08:54am 14.8 12.6 14.8 100 0.0 W 20 50 11 27 - - -
16/08:30am 15.0 13.8 15.0 100 0.0 WNW 15 24 8 13 - - -
16/08:00am 14.9 14.0 14.9 100 0.0 W 13 19 7 10 - - -
16/07:30am 14.8 12.7 14.8 100 0.0 W 19 28 10 15 - - -
16/07:00am 14.9 12.9 14.9 100 0.0 WSW 19 26 10 14 - - -
16/06:30am 15.3 13.2 15.3 100 0.0 WSW 20 33 11 18 - - -
16/06:00am 15.7 13.0 15.7 100 0.0 WSW 24 33 13 18 - - -
16/05:30am 16.0 14.4 16.0 100 0.0 WSW 19 28 10 15 - - -
16/05:00am 16.1 14.5 16.1 100 0.0 WSW 19 26 10 14 - - -
16/04:30am 16.3 15.2 16.3 100 0.0 W 17 24 9 13 - - -
16/04:00am 16.7 14.0 16.7 100 0.0 W 26 41 14 22 - - -
16/03:30am 17.3 16.6 17.3 100 0.0 WNW 17 32 9 17 - - -
16/03:00am 17.3 16.6 17.3 100 0.0 NW 17 28 9 15 - - -
16/02:30am 17.2 16.1 17.2 100 0.0 NW 19 30 10 16 - - -
16/02:00am 17.1 16.3 17.1 100 0.0 NNW 17 28 9 15 - - -
16/01:30am 17.2 16.1 17.2 100 0.0 NNW 19 37 10 20 - - -
16/01:00am 17.3 15.3 17.3 100 0.0 N 24 35 13 19 - - -
16/12:30am 17.3 14.5 17.3 100 0.0 N 28 43 15 23 - - -
16/12:16am 17.3 13.7 17.3 100 0.0 NNE 32 52 17 28 - - -
16/12:00am 17.2 14.0 17.2 100 0.0 NNE 30 46 16 25 - - -
 
Date/Time
WST
Temp
°C
App
Temp
°C
Dew
Point
°C
Rel
Hum
%
Delta-T
°C
Wind Press
QNH
hPa
Press
MSL
hPa
Rain since
9am
mm
Dir  Spd
km/h
Gust
km/h
Spd
kts
Gust
kts
15/11:30pm 17.1 14.6 17.1 100 0.0 N 26 39 14 21 - - -
15/11:00pm 17.1 14.6 17.1 100 0.0 N 26 39 14 21 - - -
15/10:30pm 17.1 14.6 17.1 100 0.0 NNE 26 39 14 21 - - -
15/10:00pm 17.1 15.4 17.1 100 0.0 NNE 22 39 12 21 - - -
15/09:30pm 16.6 14.7 16.6 100 0.0 NE 22 35 12 19 - - -
15/09:00pm 16.1 14.3 16.1 100 0.0 NE 20 30 11 16 - - -
15/08:30pm 15.6 13.3 15.6 100 0.0 NE 22 30 12 16 - - -
15/08:00pm 15.3 14.2 15.3 100 0.0 NNE 15 20 8 11 - - -
15/07:30pm 15.5 13.7 15.5 100 0.0 ENE 19 24 10 13 - - -
15/07:00pm 15.3 12.9 15.3 100 0.0 ENE 22 30 12 16 - - -
15/06:30pm 15.2 13.7 14.2 94 0.6 ENE 15 19 8 10 - - -
15/06:00pm 15.7 14.7 13.4 86 1.3 NE 11 17 6 9 - - -
15/05:30pm 17.2 16.3 13.7 80 2.0 NNE 11 19 6 10 - - -
15/05:00pm 19.4 17.9 11.9 62 4.2 NE 11 19 6 10 - - -
15/04:30pm 19.5 19.1 13.0 66 3.7 NE 7 9 4 5 - - -
15/04:00pm 19.5 20.1 13.2 67 3.6 SW 2 6 1 3 - - -
15/03:30pm 19.5 18.7 13.0 66 3.7 WSW 9 15 5 8 - - -
15/03:00pm 21.2 20.3 12.6 58 4.9 W 9 19 5 10 - - -
15/02:30pm 21.7 18.8 11.1 51 5.9 N 17 30 9 16 - - -
15/02:00pm 22.3 20.1 12.0 52 5.9 NNW 15 28 8 15 - - -
15/01:30pm 21.9 18.1 11.0 50 6.1 N 22 35 12 19 - - -
15/01:00pm 21.8 17.8 10.6 49 6.2 N 22 37 12 20 - - -
15/12:30pm 21.4 16.4 11.1 52 5.7 NNE 28 44 15 24 - - -
15/12:00pm 20.8 17.1 11.4 55 5.3 NNE 22 33 12 18 - - -
15/11:30am 20.1 15.0 10.5 54 5.3 NNE 28 41 15 22 - - -
15/11:00am 20.0 16.2 11.2 57 4.9 NNE 22 32 12 17 - - -
15/10:30am 19.0 15.9 10.3 57 4.7 NE 17 30 9 16 - - -
15/10:00am 17.6 14.0 10.0 61 4.1 NE 19 26 10 14 - - -
15/09:30am 16.4 12.4 8.9 61 3.9 ENE 20 26 11 14 - - -
15/09:00am 15.1 10.7 7.6 61 3.8 ENE 20 30 11 16 - - -
15/08:30am 13.9 9.5 7.2 64 3.3 ENE 20 32 11 17 - - -
15/08:00am 13.0 7.7 6.8 66 3.0 ENE 24 35 13 19 - - -
15/07:30am 11.8 6.4 6.3 69 2.6 ENE 24 33 13 18 - - -
15/07:00am 11.3 5.4 6.0 70 2.5 ENE 26 39 14 21 - - -
15/06:30am 11.5 5.3 6.0 69 2.6 ENE 28 41 15 22 - - -
15/06:00am 11.9 5.3 6.2 68 2.7 E 30 44 16 24 - - -
15/05:30am 11.9 5.4 6.4 69 2.6 E 30 39 16 21 - - -
15/05:01am 11.8 5.3 6.7 71 2.5 E 30 50 16 27 - - -
15/05:00am 11.8 5.3 6.7 71 2.5 E 30 41 16 22 - - -
15/04:30am 11.7 5.3 7.0 73 2.3 E 30 41 16 22 - - -
15/04:00am 11.5 5.1 7.0 74 2.2 E 30 41 16 22 - - -
15/03:30am 11.5 4.8 7.2 75 2.1 E 32 43 17 23 - - -
15/03:00am 11.4 5.1 7.3 76 2.0 E 30 41 16 22 - - -
15/02:30am 11.7 5.7 7.2 74 2.2 E 28 43 15 23 - - -
15/02:00am 11.6 6.0 7.3 75 2.1 E 26 35 14 19 - - -
15/01:30am 11.5 5.6 7.4 76 2.0 E 28 35 15 19 - - -
15/01:00am 11.4 5.9 7.7 78 1.8 ENE 26 35 14 19 - - -
15/12:30am 11.6 6.6 7.9 78 1.8 ENE 24 32 13 17 - - -
15/12:00am 11.7 6.7 8.2 79 1.7 ENE 24 30 13 16 - - -
 
Date/Time
WST
Temp
°C
App
Temp
°C
Dew
Point
°C
Rel
Hum
%
Delta-T
°C
Wind Press
QNH
hPa
Press
MSL
hPa
Rain since
9am
mm
Dir  Spd
km/h
Gust
km/h
Spd
kts
Gust
kts
14/11:30pm 12.0 7.0 8.1 77 1.9 ENE 24 30 13 16 - - -
14/11:00pm 12.2 7.6 8.1 76 2.0 ENE 22 28 12 15 - - -
14/10:30pm 12.5 8.0 8.4 76 2.1 ENE 22 28 12 15 - - -
14/10:00pm 12.8 8.3 8.5 75 2.2 ENE 22 28 12 15 - - -
14/09:30pm 13.0 8.5 8.5 74 2.3 ENE 22 26 12 14 - - -
14/09:00pm 13.3 9.2 8.8 74 2.3 E 20 26 11 14 - - -
14/08:30pm 13.6 9.8 8.9 73 2.4 ENE 19 24 10 13 - - -
14/08:00pm 13.9 10.1 9.1 73 2.5 E 19 24 10 13 - - -
14/07:30pm 14.0 10.7 9.6 75 2.3 E 17 24 9 13 - - -
14/07:00pm 14.4 11.5 9.6 73 2.5 E 15 22 8 12 - - -
14/06:30pm 14.3 12.0 9.1 71 2.7 E 11 17 6 9 - - -
14/06:00pm 14.6 12.4 9.4 71 2.7 E 11 15 6 8 - - -
14/05:30pm 15.5 14.1 9.6 68 3.1 ENE 7 11 4 6 - - -
14/05:00pm 16.1 14.6 9.3 64 3.6 NE 7 9 4 5 - - -
14/04:30pm 16.6 14.9 8.3 58 4.3 NNE 7 11 4 6 - - -
14/04:00pm 16.3 14.8 8.3 59 4.1 NNE 6 7 3 4 - - -
14/03:30pm 16.3 15.3 9.0 62 3.8 N 4 6 2 3 - - -
14/03:00pm 17.8 16.3 8.6 55 4.8 NNW 6 9 3 5 - - -
14/02:30pm 18.8 17.4 9.0 53 5.2 NNW 6 11 3 6 - - -
14/02:00pm 16.2 14.8 8.7 61 3.9 NNE 6 7 3 4 - - -
14/01:30pm 16.6 15.8 9.8 64 3.6 WNW 4 9 2 5 - - -
14/01:00pm 17.2 15.8 9.4 60 4.1 NE 7 15 4 8 - - -
14/12:30pm 15.6 14.3 9.1 65 3.4 ENE 6 9 3 5 - - -
14/12:00pm 16.0 14.6 9.4 65 3.5 ENE 7 11 4 6 - - -
14/11:30am 14.7 13.7 8.9 68 3.0 NE 4 7 2 4 - - -
14/11:00am 15.3 13.5 9.4 68 3.1 E 9 15 5 8 - - -
14/10:30am 15.3 13.4 11.9 80 1.9 E 13 19 7 10 - - -
14/10:00am 13.7 11.5 10.9 83 1.5 E 13 17 7 9 - - -
14/09:30am 12.7 10.7 11.6 93 0.6 E 13 17 7 9 - - -
14/09:00am 12.3 10.8 10.7 90 0.8 ESE 9 13 5 7 - - -
14/08:30am 12.1 9.9 10.8 92 0.7 E 13 19 7 10 - - -
14/08:00am 11.0 8.6 9.9 93 0.6 ESE 13 19 7 10 - - -
14/07:30am 10.8 9.1 9.7 93 0.6 ESE 9 13 5 7 - - -
14/07:00am 10.3 8.5 9.4 94 0.5 ESE 9 11 5 6 - - -
14/06:30am 10.6 9.4 9.4 92 0.6 ESE 6 9 3 5 - - -
14/06:00am 10.6 10.4 9.2 91 0.7 CALM 0 0 0 0 - - -
14/05:30am 10.8 10.4 9.7 93 0.6 SSE 2 4 1 2 - - -
14/05:00am 10.8 10.4 9.9 94 0.5 NE 2 2 1 1 - - -
14/04:30am 10.7 10.6 9.6 93 0.6 CALM 0 0 0 0 - - -
14/04:00am 10.7 10.0 9.9 95 0.4 WNW 4 9 2 5 - - -
14/03:30am 10.0 9.3 9.9 99 0.1 WSW 4 6 2 3 - - -
14/03:00am 9.9 8.8 9.9 100 0.0 WSW 6 11 3 6 - - -
14/02:30am 9.8 8.7 9.8 100 0.0 SW 6 9 3 5 - - -
14/02:00am 10.0 8.7 10.0 100 0.0 SSW 7 13 4 7 - - -
14/01:30am 10.1 9.0 10.1 100 0.0 SW 6 9 3 5 - - -
14/01:00am 10.4 8.9 10.4 100 0.0 SW 9 13 5 7 - - -
14/12:30am 10.6 8.0 10.6 100 0.0 SW 15 20 8 11 - - -
14/12:00am 10.5 7.1 10.5 100 0.0 SW 19 26 10 14 - - -
 
Date/Time
WST
Temp
°C
App
Temp
°C
Dew
Point
°C
Rel
Hum
%
Delta-T
°C
Wind Press
QNH
hPa
Press
MSL
hPa
Rain since
9am
mm
Dir  Spd
km/h
Gust
km/h
Spd
kts
Gust
kts
13/11:30pm 10.6 7.2 10.6 100 0.0 SW 19 24 10 13 - - -
13/11:00pm 10.8 7.5 10.8 100 0.0 SW 19 24 10 13 - - -
13/10:30pm 11.1 7.3 11.1 100 0.0 SW 22 39 12 21 - - -
13/10:00pm 11.3 8.9 11.3 100 0.0 SW 15 19 8 10 - - -
13/09:30pm 11.6 8.9 11.6 100 0.0 SW 17 24 9 13 - - -
13/09:00pm 11.8 7.8 11.8 100 0.0 WSW 24 44 13 24 - - -
13/08:30pm 11.6 9.3 11.6 100 0.0 W 15 20 8 11 - - -
13/08:00pm 11.3 9.2 11.3 100 0.0 NW 13 19 7 10 - - -
13/07:30pm 11.6 10.0 11.6 100 0.0 WNW 11 24 6 13 - - -
13/07:00pm 11.1 8.6 11.1 100 0.0 NW 15 24 8 13 - - -
13/06:30pm 10.9 8.7 10.9 100 0.0 WNW 13 24 7 13 - - -
13/06:00pm 11.0 6.8 11.0 100 0.0 W 24 37 13 20 - - -
13/05:30pm 12.0 9.9 11.2 95 0.4 WNW 13 24 7 13 - - -
13/05:00pm 12.4 8.3 11.6 95 0.4 WNW 24 46 13 25 - - -
13/04:30pm 12.0 8.4 12.0 100 0.0 W 22 33 12 18 - - -
13/04:17pm 13.4 10.7 13.4 100 0.0 WNW 20 50 11 27 - - -
13/04:00pm 14.0 12.4 14.0 100 0.0 NW 15 24 8 13 - - -
13/03:30pm 13.1 10.5 13.1 100 0.0 N 19 32 10 17 - - -
13/03:00pm 12.3 8.8 12.3 100 0.0 N 22 33 12 18 - - -

Latest Capital City Observations: Canberra | Sydney | Melbourne | Brisbane | Adelaide | Perth | Hobart | Darwin

Other formats

Comma delimited format used in spreadsheet applications
http://www.bom.gov.au/fwo/IDW60901/IDW60901.94615.axf

JavaScript Object Notation format (JSON) in row-major order
http://www.bom.gov.au/fwo/IDW60901/IDW60901.94615.json

Data quality

Most of these data are generated automatically and are frequently updated. Quality checks on data are not normally performed. It is possible for incorrect values to appear. Refer to information at About Latest Weather Observations and please check the disclaimer before using these data.